sensor_id;sensor_type;location;lat;lon;timestamp;pressure;altitude;pressure_sealevel;temperature;humidity
13952;BME280;39535;52.192;9.886;2024-01-30T00:00:50;102069.97;;;8.30;75.69
13952;BME280;39535;52.192;9.886;2024-01-30T00:03:18;102085.53;;;8.28;75.20
13952;BME280;39535;52.192;9.886;2024-01-30T00:05:44;102089.97;;;8.34;75.64
13952;BME280;39535;52.192;9.886;2024-01-30T00:08:10;102091.63;;;8.29;75.12
13952;BME280;39535;52.192;9.886;2024-01-30T00:10:37;102097.47;;;8.15;75.34
13952;BME280;39535;52.192;9.886;2024-01-30T00:13:05;102088.88;;;8.20;75.42
13952;BME280;39535;52.192;9.886;2024-01-30T00:15:31;102086.25;;;8.20;75.31
13952;BME280;39535;52.192;9.886;2024-01-30T00:17:57;102090.50;;;8.13;75.56
13952;BME280;39535;52.192;9.886;2024-01-30T00:20:24;102087.81;;;8.10;75.27
13952;BME280;39535;52.192;9.886;2024-01-30T00:22:50;102078.88;;;7.94;75.70
13952;BME280;39535;52.192;9.886;2024-01-30T00:25:16;102072.66;;;7.86;76.48
13952;BME280;39535;52.192;9.886;2024-01-30T00:27:43;102065.66;;;7.82;76.53
13952;BME280;39535;52.192;9.886;2024-01-30T00:30:12;102049.13;;;7.78;77.21
13952;BME280;39535;52.192;9.886;2024-01-30T00:32:38;102044.59;;;7.68;77.91
13952;BME280;39535;52.192;9.886;2024-01-30T00:35:05;102024.25;;;7.47;78.36
13952;BME280;39535;52.192;9.886;2024-01-30T00:37:32;101993.31;;;7.58;79.36
13952;BME280;39535;52.192;9.886;2024-01-30T00:39:58;101981.06;;;7.52;79.54
13952;BME280;39535;52.192;9.886;2024-01-30T00:42:24;101960.22;;;7.47;80.78
13952;BME280;39535;52.192;9.886;2024-01-30T00:44:51;101930.97;;;7.61;80.41
13952;BME280;39535;52.192;9.886;2024-01-30T00:47:20;101918.97;;;7.69;80.34
13952;BME280;39535;52.192;9.886;2024-01-30T00:49:46;101917.38;;;7.75;80.28
13952;BME280;39535;52.192;9.886;2024-01-30T00:52:12;101928.81;;;7.87;79.23
13952;BME280;39535;52.192;9.886;2024-01-30T00:54:39;101945.34;;;7.89;80.37
13952;BME280;39535;52.192;9.886;2024-01-30T00:57:05;101935.91;;;7.95;79.25
13952;BME280;39535;52.192;9.886;2024-01-30T00:59:32;101947.06;;;7.90;79.16
13952;BME280;39535;52.192;9.886;2024-01-30T01:01:58;101958.31;;;7.87;79.33
13952;BME280;39535;52.192;9.886;2024-01-30T01:04:26;101966.19;;;7.93;78.99
13952;BME280;39535;52.192;9.886;2024-01-30T01:06:52;101974.94;;;7.99;78.36
13952;BME280;39535;52.192;9.886;2024-01-30T01:09:19;102010.28;;;7.87;78.23
13952;BME280;39535;52.192;9.886;2024-01-30T01:11:45;102011.19;;;7.89;78.29
13952;BME280;39535;52.192;9.886;2024-01-30T01:14:11;102016.41;;;7.89;78.05
13952;BME280;39535;52.192;9.886;2024-01-30T01:16:38;102014.50;;;7.81;77.74
13952;BME280;39535;52.192;9.886;2024-01-30T01:19:04;102012.94;;;7.89;77.94
13952;BME280;39535;52.192;9.886;2024-01-30T01:21:32;102022.31;;;7.82;78.29
13952;BME280;39535;52.192;9.886;2024-01-30T01:23:58;102011.97;;;7.84;78.56
13952;BME280;39535;52.192;9.886;2024-01-30T01:26:24;102001.50;;;7.79;78.73
13952;BME280;39535;52.192;9.886;2024-01-30T01:28:51;101982.53;;;7.86;78.63
13952;BME280;39535;52.192;9.886;2024-01-30T01:31:17;101993.78;;;7.87;78.28
13952;BME280;39535;52.192;9.886;2024-01-30T01:33:43;101990.28;;;7.83;78.53
13952;BME280;39535;52.192;9.886;2024-01-30T01:36:10;101987.34;;;7.63;78.84
13952;BME280;39535;52.192;9.886;2024-01-30T01:38:37;101964.84;;;7.65;79.70
13952;BME280;39535;52.192;9.886;2024-01-30T01:41:04;101958.09;;;7.76;79.01
13952;BME280;39535;52.192;9.886;2024-01-30T01:43:30;101955.38;;;7.69;79.60
13952;BME280;39535;52.192;9.886;2024-01-30T01:45:57;101944.16;;;7.73;80.65
13952;BME280;39535;52.192;9.886;2024-01-30T01:48:24;101931.41;;;7.85;80.68
13952;BME280;39535;52.192;9.886;2024-01-30T01:50:51;101928.00;;;7.89;80.37
13952;BME280;39535;52.192;9.886;2024-01-30T01:53:18;101948.03;;;7.95;79.33
13952;BME280;39535;52.192;9.886;2024-01-30T01:55:47;101952.19;;;7.87;79.56
13952;BME280;39535;52.192;9.886;2024-01-30T01:58:14;101941.13;;;7.97;79.50
13952;BME280;39535;52.192;9.886;2024-01-30T02:00:40;101950.53;;;7.90;78.79
13952;BME280;39535;52.192;9.886;2024-01-30T02:03:08;101926.31;;;7.93;80.11
13952;BME280;39535;52.192;9.886;2024-01-30T02:05:34;101935.06;;;7.98;79.18
13952;BME280;39535;52.192;9.886;2024-01-30T02:08:01;101934.81;;;7.83;79.96
13952;BME280;39535;52.192;9.886;2024-01-30T02:10:28;101933.22;;;7.92;79.36
13952;BME280;39535;52.192;9.886;2024-01-30T02:12:57;101927.22;;;7.95;80.03
13952;BME280;39535;52.192;9.886;2024-01-30T02:15:24;101923.50;;;7.81;80.58
13952;BME280;39535;52.192;9.886;2024-01-30T02:17:50;101912.31;;;7.85;80.37
13952;BME280;39535;52.192;9.886;2024-01-30T02:20:16;101908.97;;;7.92;80.53
13952;BME280;39535;52.192;9.886;2024-01-30T02:22:44;101902.94;;;7.94;80.17
13952;BME280;39535;52.192;9.886;2024-01-30T02:25:11;101888.19;;;7.93;81.21
13952;BME280;39535;52.192;9.886;2024-01-30T02:27:37;101891.72;;;7.99;80.69
13952;BME280;39535;52.192;9.886;2024-01-30T02:30:05;101886.66;;;8.05;80.37
13952;BME280;39535;52.192;9.886;2024-01-30T02:32:31;101900.50;;;8.05;80.29
13952;BME280;39535;52.192;9.886;2024-01-30T02:34:58;101898.84;;;8.10;80.29
13952;BME280;39535;52.192;9.886;2024-01-30T02:37:24;101896.88;;;7.95;80.19
13952;BME280;39535;52.192;9.886;2024-01-30T02:39:52;101885.69;;;8.00;80.16
13952;BME280;39535;52.192;9.886;2024-01-30T02:42:18;101877.81;;;7.95;80.93
13952;BME280;39535;52.192;9.886;2024-01-30T02:44:44;101866.56;;;7.96;81.44
13952;BME280;39535;52.192;9.886;2024-01-30T02:47:11;101875.13;;;7.89;80.69
13952;BME280;39535;52.192;9.886;2024-01-30T02:49:37;101857.75;;;7.86;81.44
13952;BME280;39535;52.192;9.886;2024-01-30T02:52:04;101851.00;;;7.99;81.13
13952;BME280;39535;52.192;9.886;2024-01-30T02:54:30;101856.13;;;7.93;80.33
13952;BME280;39535;52.192;9.886;2024-01-30T02:56:58;101858.72;;;7.93;80.83
13952;BME280;39535;52.192;9.886;2024-01-30T02:59:24;101850.38;;;8.15;79.78
13952;BME280;39535;52.192;9.886;2024-01-30T03:01:50;101872.16;;;8.24;79.31
13952;BME280;39535;52.192;9.886;2024-01-30T03:04:18;101887.09;;;8.37;78.35
13952;BME280;39535;52.192;9.886;2024-01-30T03:06:45;101906.97;;;8.33;78.61
13952;BME280;39535;52.192;9.886;2024-01-30T03:09:12;101913.91;;;8.33;78.38
13952;BME280;39535;52.192;9.886;2024-01-30T03:11:39;101912.84;;;8.20;78.96
13952;BME280;39535;52.192;9.886;2024-01-30T03:14:06;101906.94;;;8.29;78.64
13952;BME280;39535;52.192;9.886;2024-01-30T03:16:33;101932.13;;;8.33;77.68
13952;BME280;39535;52.192;9.886;2024-01-30T03:18:59;101926.03;;;8.31;78.13
13952;BME280;39535;52.192;9.886;2024-01-30T03:21:27;101931.78;;;8.10;78.54
13952;BME280;39535;52.192;9.886;2024-01-30T03:23:53;101933.78;;;8.28;78.50
13952;BME280;39535;52.192;9.886;2024-01-30T03:26:19;101927.72;;;8.27;77.97
13952;BME280;39535;52.192;9.886;2024-01-30T03:28:46;101936.34;;;8.25;78.21
13952;BME280;39535;52.192;9.886;2024-01-30T03:31:15;101927.63;;;8.21;77.89
13952;BME280;39535;52.192;9.886;2024-01-30T03:33:42;101930.03;;;8.10;78.54
13952;BME280;39535;52.192;9.886;2024-01-30T03:36:09;101920.66;;;8.20;77.66
13952;BME280;39535;52.192;9.886;2024-01-30T03:38:35;101929.50;;;8.31;77.61
13952;BME280;39535;52.192;9.886;2024-01-30T03:41:02;101937.13;;;8.19;77.65
13952;BME280;39535;52.192;9.886;2024-01-30T03:43:28;101943.31;;;8.27;77.23
13952;BME280;39535;52.192;9.886;2024-01-30T03:45:55;101951.22;;;8.33;77.07
13952;BME280;39535;52.192;9.886;2024-01-30T03:48:25;101953.97;;;8.41;76.94
13952;BME280;39535;52.192;9.886;2024-01-30T03:50:52;101972.91;;;8.35;76.23
13952;BME280;39535;52.192;9.886;2024-01-30T03:53:18;101968.53;;;8.31;76.85
13952;BME280;39535;52.192;9.886;2024-01-30T03:55:44;101966.78;;;8.32;76.56
13952;BME280;39535;52.192;9.886;2024-01-30T03:58:11;101974.69;;;8.37;76.60
13952;BME280;39535;52.192;9.886;2024-01-30T04:00:37;101985.13;;;8.40;76.12
13952;BME280;39535;52.192;9.886;2024-01-30T04:03:04;101989.41;;;8.36;75.86
13952;BME280;39535;52.192;9.886;2024-01-30T04:05:32;101999.06;;;8.42;75.88
13952;BME280;39535;52.192;9.886;2024-01-30T04:07:59;102003.28;;;8.35;76.01
13952;BME280;39535;52.192;9.886;2024-01-30T04:10:25;101995.38;;;8.29;75.90
13952;BME280;39535;52.192;9.886;2024-01-30T04:12:51;101997.84;;;8.21;76.47
13952;BME280;39535;52.192;9.886;2024-01-30T04:15:19;101983.22;;;8.28;76.29
13952;BME280;39535;52.192;9.886;2024-01-30T04:17:45;101986.34;;;8.08;76.30
13952;BME280;39535;52.192;9.886;2024-01-30T04:20:13;101975.97;;;8.07;76.64
13952;BME280;39535;52.192;9.886;2024-01-30T04:22:42;101962.59;;;7.87;77.43
13952;BME280;39535;52.192;9.886;2024-01-30T04:25:08;101950.47;;;7.86;77.01
13952;BME280;39535;52.192;9.886;2024-01-30T04:27:35;101950.44;;;7.84;77.25
13952;BME280;39535;52.192;9.886;2024-01-30T04:30:01;101953.03;;;7.84;77.33
13952;BME280;39535;52.192;9.886;2024-01-30T04:32:27;101953.06;;;7.86;77.78
13952;BME280;39535;52.192;9.886;2024-01-30T04:34:54;101951.31;;;7.83;77.32
13952;BME280;39535;52.192;9.886;2024-01-30T04:37:20;101939.06;;;7.78;78.08
13952;BME280;39535;52.192;9.886;2024-01-30T04:39:48;101939.13;;;7.82;77.57
13952;BME280;39535;52.192;9.886;2024-01-30T04:42:14;101958.09;;;7.76;77.11
13952;BME280;39535;52.192;9.886;2024-01-30T04:44:40;101953.63;;;7.68;77.22
13952;BME280;39535;52.192;9.886;2024-01-30T04:47:07;101953.66;;;7.71;77.62
13952;BME280;39535;52.192;9.886;2024-01-30T04:49:34;101957.16;;;7.71;77.17
13952;BME280;39535;52.192;9.886;2024-01-30T04:52:00;101969.16;;;7.65;77.48
13952;BME280;39535;52.192;9.886;2024-01-30T04:54:26;101965.50;;;7.53;77.47
13952;BME280;39535;52.192;9.886;2024-01-30T04:56:54;101951.66;;;7.54;77.72
13952;BME280;39535;52.192;9.886;2024-01-30T04:59:20;101930.78;;;7.50;79.21
13952;BME280;39535;52.192;9.886;2024-01-30T05:01:47;101922.97;;;7.48;78.87
13952;BME280;39535;52.192;9.886;2024-01-30T05:04:13;101902.38;;;7.59;78.94
13952;BME280;39535;52.192;9.886;2024-01-30T05:06:40;101905.91;;;7.64;78.55
13952;BME280;39535;52.192;9.886;2024-01-30T05:09:06;101912.06;;;7.71;77.88
13952;BME280;39535;52.192;9.886;2024-01-30T05:11:36;101924.22;;;7.70;78.08
13952;BME280;39535;52.192;9.886;2024-01-30T05:14:04;101931.19;;;7.74;77.93
13952;BME280;39535;52.192;9.886;2024-01-30T05:16:33;101930.38;;;7.75;77.26
13952;BME280;39535;52.192;9.886;2024-01-30T05:19:02;101934.44;;;7.60;77.39
13952;BME280;39535;52.192;9.886;2024-01-30T05:21:28;101921.31;;;7.52;78.88
13952;BME280;39535;52.192;9.886;2024-01-30T05:23:54;101917.00;;;7.54;78.65
13952;BME280;39535;52.192;9.886;2024-01-30T05:26:21;101911.75;;;7.51;79.32
13952;BME280;39535;52.192;9.886;2024-01-30T05:28:48;101899.66;;;7.51;79.12
13952;BME280;39535;52.192;9.886;2024-01-30T05:31:15;101899.34;;;7.34;79.44
13952;BME280;39535;52.192;9.886;2024-01-30T05:33:42;101872.44;;;7.31;80.09
13952;BME280;39535;52.192;9.886;2024-01-30T05:36:08;101855.25;;;7.38;80.50
13952;BME280;39535;52.192;9.886;2024-01-30T05:38:34;101856.31;;;7.50;79.68
13952;BME280;39535;52.192;9.886;2024-01-30T05:41:01;101865.09;;;7.59;78.86
13952;BME280;39535;52.192;9.886;2024-01-30T05:43:28;101873.81;;;7.61;79.19
13952;BME280;39535;52.192;9.886;2024-01-30T05:45:54;101885.00;;;7.56;79.24
13952;BME280;39535;52.192;9.886;2024-01-30T05:48:22;101889.53;;;7.68;78.41
13952;BME280;39535;52.192;9.886;2024-01-30T05:50:48;101901.69;;;7.71;78.23
13952;BME280;39535;52.192;9.886;2024-01-30T05:53:14;101902.44;;;7.64;78.87
13952;BME280;39535;52.192;9.886;2024-01-30T05:55:41;101908.69;;;7.73;77.83
13952;BME280;39535;52.192;9.886;2024-01-30T05:58:07;101912.97;;;7.73;77.58
13952;BME280;39535;52.192;9.886;2024-01-30T06:00:33;101925.78;;;7.61;78.31
13952;BME280;39535;52.192;9.886;2024-01-30T06:03:00;101914.66;;;7.68;77.66
13952;BME280;39535;52.192;9.886;2024-01-30T06:05:27;101921.72;;;7.75;77.41
13952;BME280;39535;52.192;9.886;2024-01-30T06:07:54;101931.34;;;7.82;77.47
13952;BME280;39535;52.192;9.886;2024-01-30T06:10:20;101947.03;;;7.88;77.52
13952;BME280;39535;52.192;9.886;2024-01-30T06:12:46;101952.34;;;7.96;76.85
13952;BME280;39535;52.192;9.886;2024-01-30T06:15:13;101975.69;;;7.91;76.51
13952;BME280;39535;52.192;9.886;2024-01-30T06:17:40;101974.81;;;7.92;76.80
13952;BME280;39535;52.192;9.886;2024-01-30T06:20:07;101978.28;;;7.91;76.60
13952;BME280;39535;52.192;9.886;2024-01-30T06:22:34;101986.81;;;7.84;77.18
13952;BME280;39535;52.192;9.886;2024-01-30T06:25:01;101970.47;;;7.90;76.70
13952;BME280;39535;52.192;9.886;2024-01-30T06:27:27;101944.53;;;7.94;78.64
13952;BME280;39535;52.192;9.886;2024-01-30T06:29:54;101894.44;;;8.05;80.67
13952;BME280;39535;52.192;9.886;2024-01-30T06:32:21;101889.97;;;7.96;79.77
13952;BME280;39535;52.192;9.886;2024-01-30T06:34:47;101895.94;;;7.90;78.06
13952;BME280;39535;52.192;9.886;2024-01-30T06:37:13;101889.78;;;7.84;80.36
13952;BME280;39535;52.192;9.886;2024-01-30T06:39:41;101854.22;;;7.83;79.84
13952;BME280;39535;52.192;9.886;2024-01-30T06:42:08;101860.94;;;7.68;78.07
13952;BME280;39535;52.192;9.886;2024-01-30T06:44:34;101879.03;;;7.62;79.24
13952;BME280;39535;52.192;9.886;2024-01-30T06:47:00;101879.91;;;7.61;78.69
13952;BME280;39535;52.192;9.886;2024-01-30T06:49:27;101846.31;;;7.73;82.32
13952;BME280;39535;52.192;9.886;2024-01-30T06:51:53;101815.13;;;7.75;80.95
13952;BME280;39535;52.192;9.886;2024-01-30T06:54:19;101832.31;;;7.65;79.71
13952;BME280;39535;52.192;9.886;2024-01-30T06:56:47;101853.91;;;7.63;79.09
13952;BME280;39535;52.192;9.886;2024-01-30T06:59:15;101870.19;;;7.52;77.94
13952;BME280;39535;52.192;9.886;2024-01-30T07:01:42;101858.09;;;7.51;79.64
13952;BME280;39535;52.192;9.886;2024-01-30T07:04:08;101861.50;;;7.50;79.66
13952;BME280;39535;52.192;9.886;2024-01-30T07:06:49;101849.38;;;7.51;79.31
13952;BME280;39535;52.192;9.886;2024-01-30T07:09:20;101862.34;;;7.48;78.78
13952;BME280;39535;52.192;9.886;2024-01-30T07:11:54;101842.47;;;7.50;80.31
13952;BME280;39535;52.192;9.886;2024-01-30T07:14:26;101832.97;;;7.52;79.78
13952;BME280;39535;52.192;9.886;2024-01-30T07:16:55;101836.50;;;7.55;79.88
13952;BME280;39535;52.192;9.886;2024-01-30T07:19:22;101833.84;;;7.54;80.20
13952;BME280;39535;52.192;9.886;2024-01-30T07:21:48;101819.94;;;7.50;80.33
13952;BME280;39535;52.192;9.886;2024-01-30T07:24:15;101833.56;;;7.37;80.15
13952;BME280;39535;52.192;9.886;2024-01-30T07:26:41;101828.69;;;7.55;80.27
13952;BME280;39535;52.192;9.886;2024-01-30T07:29:09;101830.44;;;7.56;80.58
13952;BME280;39535;52.192;9.886;2024-01-30T07:31:35;101822.66;;;7.58;80.56
13952;BME280;39535;52.192;9.886;2024-01-30T07:34:01;101833.84;;;7.54;78.51
13952;BME280;39535;52.192;9.886;2024-01-30T07:36:28;101859.78;;;7.51;79.20
13952;BME280;39535;52.192;9.886;2024-01-30T07:38:55;101864.88;;;7.45;79.38
13952;BME280;39535;52.192;9.886;2024-01-30T07:41:21;101864.19;;;7.53;79.12
13952;BME280;39535;52.192;9.886;2024-01-30T07:43:48;101858.09;;;7.51;78.70
13952;BME280;39535;52.192;9.886;2024-01-30T07:46:15;101864.25;;;7.58;79.03
13952;BME280;39535;52.192;9.886;2024-01-30T07:48:42;101871.22;;;7.62;79.11
13952;BME280;39535;52.192;9.886;2024-01-30T07:51:08;101860.75;;;7.56;79.81
13952;BME280;39535;52.192;9.886;2024-01-30T07:53:37;101851.31;;;7.63;79.23
13952;BME280;39535;52.192;9.886;2024-01-30T07:56:05;101857.53;;;7.72;78.67
13952;BME280;39535;52.192;9.886;2024-01-30T07:58:32;101866.19;;;7.73;78.59
13952;BME280;39535;52.192;9.886;2024-01-30T08:00:58;101877.53;;;7.76;78.35
13952;BME280;39535;52.192;9.886;2024-01-30T08:03:26;101884.53;;;7.82;77.76
13952;BME280;39535;52.192;9.886;2024-01-30T08:05:53;101905.31;;;7.81;77.84
13952;BME280;39535;52.192;9.886;2024-01-30T08:08:19;101905.13;;;7.68;78.91
13952;BME280;39535;52.192;9.886;2024-01-30T08:10:45;101897.31;;;7.68;78.18
13952;BME280;39535;52.192;9.886;2024-01-30T08:13:11;101891.19;;;7.65;79.05
13952;BME280;39535;52.192;9.886;2024-01-30T08:15:37;101890.38;;;7.67;79.39
13952;BME280;39535;52.192;9.886;2024-01-30T08:18:04;101870.63;;;7.77;79.39
13952;BME280;39535;52.192;9.886;2024-01-30T08:20:33;101872.34;;;7.78;79.04
13952;BME280;39535;52.192;9.886;2024-01-30T08:23:00;101867.94;;;7.72;79.17
13952;BME280;39535;52.192;9.886;2024-01-30T08:25:26;101853.41;;;7.85;79.75
13952;BME280;39535;52.192;9.886;2024-01-30T08:27:53;101849.06;;;7.84;79.75
13952;BME280;39535;52.192;9.886;2024-01-30T08:30:19;101842.22;;;7.92;79.77
13952;BME280;39535;52.192;9.886;2024-01-30T08:32:45;101837.03;;;7.91;79.88
13952;BME280;39535;52.192;9.886;2024-01-30T08:35:12;101823.91;;;7.85;80.51
13952;BME280;39535;52.192;9.886;2024-01-30T08:37:40;101807.47;;;7.84;81.21
13952;BME280;39535;52.192;9.886;2024-01-30T08:40:07;101791.84;;;7.84;81.02
13952;BME280;39535;52.192;9.886;2024-01-30T08:42:34;101772.13;;;7.97;81.95
13952;BME280;39535;52.192;9.886;2024-01-30T08:45:00;101767.81;;;7.99;80.93
13952;BME280;39535;52.192;9.886;2024-01-30T08:47:27;101782.78;;;8.17;80.16
13952;BME280;39535;52.192;9.886;2024-01-30T08:49:53;101803.69;;;8.26;79.34
13952;BME280;39535;52.192;9.886;2024-01-30T08:52:20;101823.88;;;8.43;78.47
13952;BME280;39535;52.192;9.886;2024-01-30T08:54:47;101856.16;;;8.59;77.65
13952;BME280;39535;52.192;9.886;2024-01-30T08:57:13;101878.78;;;8.66;77.17
13952;BME280;39535;52.192;9.886;2024-01-30T08:59:40;101899.78;;;8.77;76.77
13952;BME280;39535;52.192;9.886;2024-01-30T09:02:09;101908.53;;;8.83;76.91
13952;BME280;39535;52.192;9.886;2024-01-30T09:04:37;101924.19;;;8.86;76.89
13952;BME280;39535;52.192;9.886;2024-01-30T09:07:03;101938.97;;;8.89;76.64
13952;BME280;39535;52.192;9.886;2024-01-30T09:09:33;101950.31;;;8.92;75.87
13952;BME280;39535;52.192;9.886;2024-01-30T09:12:01;101966.03;;;9.03;75.93
13952;BME280;39535;52.192;9.886;2024-01-30T09:14:32;101973.13;;;9.15;75.49
13952;BME280;39535;52.192;9.886;2024-01-30T09:16:58;101981.91;;;9.22;75.33
13952;BME280;39535;52.192;9.886;2024-01-30T09:19:25;101982.00;;;9.31;75.08
13952;BME280;39535;52.192;9.886;2024-01-30T09:21:51;101987.22;;;9.32;74.88
13952;BME280;39535;52.192;9.886;2024-01-30T09:24:18;102010.72;;;9.34;74.12
13952;BME280;39535;52.192;9.886;2024-01-30T09:26:44;102013.44;;;9.46;74.32
13952;BME280;39535;52.192;9.886;2024-01-30T09:29:12;102031.91;;;9.63;73.54
13952;BME280;39535;52.192;9.886;2024-01-30T09:31:38;102037.06;;;9.60;73.88
13952;BME280;39535;52.192;9.886;2024-01-30T09:34:05;102038.03;;;9.70;73.92
13952;BME280;39535;52.192;9.886;2024-01-30T09:36:31;102012.06;;;9.79;76.77
13952;BME280;39535;52.192;9.886;2024-01-30T09:38:58;101948.78;;;10.02;78.83
13952;BME280;39535;52.192;9.886;2024-01-30T09:41:24;101851.50;;;10.26;81.01
13952;BME280;39535;52.192;9.886;2024-01-30T09:43:51;101909.81;;;10.25;76.54
13952;BME280;39535;52.192;9.886;2024-01-30T09:46:21;101901.22;;;10.40;77.79
13952;BME280;39535;52.192;9.886;2024-01-30T09:48:52;101920.38;;;10.42;74.96
13952;BME280;39535;52.192;9.886;2024-01-30T09:51:20;101967.41;;;10.49;75.39
13952;BME280;39535;52.192;9.886;2024-01-30T09:53:47;101983.97;;;10.53;73.88
13952;BME280;39535;52.192;9.886;2024-01-30T09:56:14;102012.63;;;10.45;71.98
13952;BME280;39535;52.192;9.886;2024-01-30T09:58:40;102085.56;;;10.27;70.34
13952;BME280;39535;52.192;9.886;2024-01-30T10:01:07;102102.94;;;10.28;70.81
13952;BME280;39535;52.192;9.886;2024-01-30T10:03:35;102111.63;;;10.28;73.14
13952;BME280;39535;52.192;9.886;2024-01-30T10:06:01;102090.94;;;10.44;71.50
13952;BME280;39535;52.192;9.886;2024-01-30T10:08:28;102091.91;;;10.55;72.79
13952;BME280;39535;52.192;9.886;2024-01-30T10:10:55;102093.66;;;10.58;71.58
13952;BME280;39535;52.192;9.886;2024-01-30T10:13:21;102097.22;;;10.69;72.82
13952;BME280;39535;52.192;9.886;2024-01-30T10:15:48;102103.34;;;10.72;72.21
13952;BME280;39535;52.192;9.886;2024-01-30T10:18:14;102118.16;;;10.75;69.91
13952;BME280;39535;52.192;9.886;2024-01-30T10:20:42;102115.41;;;10.57;72.73
13952;BME280;39535;52.192;9.886;2024-01-30T10:23:08;102079.88;;;10.79;73.61
13952;BME280;39535;52.192;9.886;2024-01-30T10:25:35;102074.72;;;10.94;71.40
13952;BME280;39535;52.192;9.886;2024-01-30T10:28:01;102087.78;;;10.94;72.73
13952;BME280;39535;52.192;9.886;2024-01-30T10:30:28;102039.09;;;11.07;73.53
13952;BME280;39535;52.192;9.886;2024-01-30T10:32:54;102033.91;;;11.15;73.20
13952;BME280;39535;52.192;9.886;2024-01-30T10:35:21;102049.56;;;11.11;71.11
13952;BME280;39535;52.192;9.886;2024-01-30T10:37:49;102061.81;;;11.23;73.88
13952;BME280;39535;52.192;9.886;2024-01-30T10:40:15;102090.56;;;11.17;70.13
13952;BME280;39535;52.192;9.886;2024-01-30T10:42:43;102085.38;;;11.31;70.19
13952;BME280;39535;52.192;9.886;2024-01-30T10:45:10;102121.09;;;11.27;70.33
13952;BME280;39535;52.192;9.886;2024-01-30T10:47:39;102134.16;;;11.27;69.69
13952;BME280;39535;52.192;9.886;2024-01-30T10:50:08;102143.75;;;11.25;69.44
13952;BME280;39535;52.192;9.886;2024-01-30T10:52:36;102134.19;;;11.30;69.29
13952;BME280;39535;52.192;9.886;2024-01-30T10:55:05;102125.53;;;11.42;69.81
13952;BME280;39535;52.192;9.886;2024-01-30T10:57:33;102141.19;;;11.30;68.35
13952;BME280;39535;52.192;9.886;2024-01-30T11:00:02;102153.44;;;11.40;67.85
13952;BME280;39535;52.192;9.886;2024-01-30T11:02:30;102136.03;;;11.53;70.29
13952;BME280;39535;52.192;9.886;2024-01-30T11:04:58;102129.94;;;11.52;70.33
13952;BME280;39535;52.192;9.886;2024-01-30T11:07:26;102122.16;;;11.66;71.67
13952;BME280;39535;52.192;9.886;2024-01-30T11:10:01;102127.38;;;11.71;69.59
13952;BME280;39535;52.192;9.886;2024-01-30T11:12:31;102137.88;;;11.74;68.19
13952;BME280;39535;52.192;9.886;2024-01-30T11:15:03;102171.81;;;11.59;68.19
13952;BME280;39535;52.192;9.886;2024-01-30T11:17:42;102167.47;;;11.61;67.39
13952;BME280;39535;52.192;9.886;2024-01-30T11:20:14;102210.94;;;11.40;66.32
13952;BME280;39535;52.192;9.886;2024-01-30T11:22:42;102184.88;;;11.59;67.72
13952;BME280;39535;52.192;9.886;2024-01-30T11:25:13;102180.56;;;11.64;67.66
13952;BME280;39535;52.192;9.886;2024-01-30T11:27:42;102211.84;;;11.42;68.45
13952;BME280;39535;52.192;9.886;2024-01-30T11:30:09;102190.09;;;11.54;67.43
13952;BME280;39535;52.192;9.886;2024-01-30T11:32:36;102224.84;;;11.33;67.12
13952;BME280;39535;52.192;9.886;2024-01-30T11:35:03;102211.81;;;11.39;67.48
13952;BME280;39535;52.192;9.886;2024-01-30T11:37:31;102185.75;;;11.56;68.28
13952;BME280;39535;52.192;9.886;2024-01-30T11:39:58;102203.06;;;11.32;66.80
13952;BME280;39535;52.192;9.886;2024-01-30T11:42:26;102183.97;;;11.50;68.37
13952;BME280;39535;52.192;9.886;2024-01-30T11:44:54;102183.16;;;11.61;67.79
13952;BME280;39535;52.192;9.886;2024-01-30T11:47:22;102167.53;;;11.71;67.91
13952;BME280;39535;52.192;9.886;2024-01-30T11:49:48;102170.16;;;11.78;68.97
13952;BME280;39535;52.192;9.886;2024-01-30T11:52:15;102152.72;;;11.83;68.73
13952;BME280;39535;52.192;9.886;2024-01-30T11:54:42;102157.09;;;11.87;67.46
13952;BME280;39535;52.192;9.886;2024-01-30T11:57:15;102178.97;;;11.95;67.15
13952;BME280;39535;52.192;9.886;2024-01-30T11:59:47;102156.31;;;11.97;68.72
13952;BME280;39535;52.192;9.886;2024-01-30T12:02:16;102139.72;;;12.03;67.72
13952;BME280;39535;52.192;9.886;2024-01-30T12:04:43;102150.16;;;11.90;66.96
13952;BME280;39535;52.192;9.886;2024-01-30T12:07:11;102168.50;;;11.95;66.40
13952;BME280;39535;52.192;9.886;2024-01-30T12:09:38;102168.50;;;11.94;66.58
13952;BME280;39535;52.192;9.886;2024-01-30T12:12:06;102167.66;;;11.98;66.72
13952;BME280;39535;52.192;9.886;2024-01-30T12:14:37;102167.66;;;12.07;66.96
13952;BME280;39535;52.192;9.886;2024-01-30T12:17:04;102145.00;;;12.07;67.22
13952;BME280;39535;52.192;9.886;2024-01-30T12:19:31;102157.22;;;12.05;67.07
13952;BME280;39535;52.192;9.886;2024-01-30T12:21:58;102144.13;;;12.18;67.28
13952;BME280;39535;52.192;9.886;2024-01-30T12:24:25;102168.50;;;11.98;65.95
13952;BME280;39535;52.192;9.886;2024-01-30T12:26:51;102169.44;;;12.17;66.53
13952;BME280;39535;52.192;9.886;2024-01-30T12:29:20;102157.22;;;12.11;65.65
13952;BME280;39535;52.192;9.886;2024-01-30T12:31:46;102156.41;;;12.59;66.73
13952;BME280;39535;52.192;9.886;2024-01-30T12:34:14;102195.69;;;12.62;65.38
13952;BME280;39535;52.192;9.886;2024-01-30T12:36:42;102213.16;;;12.61;64.10
13952;BME280;39535;52.192;9.886;2024-01-30T12:39:11;102223.66;;;12.92;65.20
13952;BME280;39535;52.192;9.886;2024-01-30T12:41:37;102242.03;;;13.03;63.75
13952;BME280;39535;52.192;9.886;2024-01-30T12:44:04;102245.50;;;13.46;62.55
13952;BME280;39535;52.192;9.886;2024-01-30T12:46:30;102281.34;;;13.29;62.37
13952;BME280;39535;52.192;9.886;2024-01-30T12:48:56;102287.47;;;13.05;62.33
13952;BME280;39535;52.192;9.886;2024-01-30T12:51:23;102297.91;;;12.77;64.46
13952;BME280;39535;52.192;9.886;2024-01-30T12:53:50;102269.03;;;12.43;65.18
13952;BME280;39535;52.192;9.886;2024-01-30T12:56:17;102231.47;;;12.35;65.69